createdAt,value
2018-04-02T00:01:43.102Z,94.80
2018-04-02T00:04:10.569Z,94.70
2018-04-02T00:06:38.077Z,94.70
2018-04-02T00:09:05.526Z,94.90
2018-04-02T00:11:33.014Z,95.10
2018-04-02T00:14:00.507Z,95.20
2018-04-02T00:16:28.040Z,95.20
2018-04-02T00:18:56.228Z,95.70
2018-04-02T00:21:23.770Z,96.00
2018-04-02T00:23:51.253Z,95.70
2018-04-02T00:28:52.935Z,95.30
2018-04-02T00:31:21.160Z,95.20
2018-04-02T00:33:48.665Z,95.20
2018-04-02T00:36:16.158Z,95.30
2018-04-02T00:38:43.674Z,95.40
2018-04-02T00:41:11.155Z,95.60
2018-04-02T00:43:38.739Z,95.80
2018-04-02T00:46:06.190Z,95.70
2018-04-02T00:48:33.650Z,95.80
2018-04-02T00:51:01.138Z,95.30
2018-04-02T00:53:28.592Z,95.00
2018-04-02T00:55:56.063Z,94.80
2018-04-02T00:58:23.550Z,94.80
2018-04-02T01:00:51.021Z,95.10
2018-04-02T01:03:19.240Z,95.20
2018-04-02T01:05:46.713Z,95.20
2018-04-02T01:08:14.173Z,95.60
2018-04-02T01:10:41.630Z,96.00
2018-04-02T01:13:09.132Z,96.20
2018-04-02T01:15:37.403Z,96.30
2018-04-02T01:18:05.631Z,96.30
2018-04-02T01:20:33.091Z,96.30
2018-04-02T01:23:00.610Z,96.70
2018-04-02T01:25:28.018Z,96.80
2018-04-02T01:27:55.500Z,96.70
2018-04-02T01:30:23.726Z,96.90
2018-04-02T01:32:51.215Z,96.90
2018-04-02T01:35:18.695Z,97.00
2018-04-02T01:37:46.945Z,97.20
2018-04-02T01:40:14.399Z,97.20
2018-04-02T01:42:41.875Z,97.10
2018-04-02T01:45:09.317Z,97.20
2018-04-02T01:47:36.790Z,97.20
2018-04-02T01:50:04.463Z,97.30
2018-04-02T01:52:31.936Z,97.40
2018-04-02T01:54:59.410Z,97.30
2018-04-02T01:57:26.863Z,97.40
2018-04-02T01:59:54.390Z,97.50
2018-04-02T02:02:21.839Z,97.40
2018-04-02T02:04:49.318Z,97.40
2018-04-02T02:07:17.539Z,97.40
2018-04-02T02:09:45.026Z,97.40
2018-04-02T02:12:12.496Z,97.50
2018-04-02T02:14:39.988Z,97.50
2018-04-02T02:17:07.465Z,97.60
2018-04-02T02:19:34.926Z,97.70
2018-04-02T02:22:02.475Z,97.60
2018-04-02T02:24:29.927Z,97.80
2018-04-02T02:26:57.401Z,97.90
2018-04-02T02:29:24.855Z,98.00
2018-04-02T02:31:52.352Z,97.90
2018-04-02T02:34:20.624Z,98.00
2018-04-02T02:36:48.113Z,98.00
2018-04-02T02:39:16.333Z,98.30
2018-04-02T02:41:43.790Z,98.30
2018-04-02T02:44:11.286Z,98.40
2018-04-02T02:46:39.510Z,98.70
2018-04-02T02:49:06.975Z,98.70
2018-04-02T02:51:34.451Z,98.80
2018-04-02T02:54:01.907Z,98.70
2018-04-02T02:56:29.413Z,98.80
2018-04-02T02:58:56.911Z,98.80
2018-04-02T03:01:24.385Z,99.00
2018-04-02T03:03:51.867Z,99.00
2018-04-02T03:06:20.086Z,99.20
2018-04-02T03:08:47.580Z,99.20
2018-04-02T03:11:15.031Z,99.30
2018-04-02T03:13:42.509Z,99.40
2018-04-02T03:16:10.742Z,99.70
2018-04-02T03:18:38.234Z,99.70
2018-04-02T03:21:05.806Z,99.70
2018-04-02T03:23:33.259Z,99.70
2018-04-02T03:26:00.744Z,99.70
2018-04-02T03:28:28.986Z,99.70
2018-04-02T03:30:56.492Z,99.70
2018-04-02T03:33:23.970Z,99.90
2018-04-02T03:35:51.455Z,99.90
2018-04-02T03:38:18.998Z,99.90
2018-04-02T03:40:46.455Z,99.90
2018-04-02T03:43:13.933Z,99.90
2018-04-02T03:45:41.423Z,99.90
2018-04-02T03:48:09.767Z,99.90
2018-04-02T03:50:38.726Z,99.90
2018-04-02T03:53:06.210Z,99.90
2018-04-02T03:55:33.684Z,99.90
2018-04-02T03:58:01.179Z,99.90
2018-04-02T04:00:28.718Z,99.90
2018-04-02T04:02:57.071Z,99.90
2018-04-02T04:05:24.542Z,99.90
2018-04-02T04:07:52.036Z,99.90
2018-04-02T04:10:19.517Z,99.90
2018-04-02T04:12:46.988Z,99.90
2018-04-02T04:15:14.538Z,99.90
2018-04-02T04:17:42.007Z,99.90
2018-04-02T04:20:09.470Z,99.90
2018-04-02T04:22:36.918Z,99.90
2018-04-02T04:25:04.418Z,99.90
2018-04-02T04:27:31.864Z,99.90
2018-04-02T04:30:00.119Z,99.70
2018-04-02T04:32:27.566Z,99.70
2018-04-02T04:34:55.026Z,99.60
2018-04-02T04:37:22.502Z,99.60
2018-04-02T04:39:49.958Z,99.50
2018-04-02T04:42:17.513Z,99.50
2018-04-02T04:44:44.971Z,99.40
2018-04-02T04:47:12.453Z,99.40
2018-04-02T04:49:40.709Z,99.50
2018-04-02T04:52:08.181Z,99.50
2018-04-02T04:54:36.404Z,99.70
2018-04-02T04:57:03.885Z,99.70
2018-04-02T04:59:31.371Z,99.80
2018-04-02T05:01:59.632Z,99.90
2018-04-02T05:04:27.097Z,99.90
2018-04-02T05:06:55.351Z,99.90
2018-04-02T05:09:22.803Z,99.90
2018-04-02T05:11:50.251Z,99.90
2018-04-02T05:14:17.747Z,99.90
2018-04-02T05:16:45.977Z,99.90
2018-04-02T05:19:13.461Z,99.90
2018-04-02T05:21:40.922Z,99.90
2018-04-02T05:24:08.397Z,99.90
2018-04-02T05:26:36.634Z,99.90
2018-04-02T05:29:04.217Z,99.90
2018-04-02T05:31:31.697Z,99.90
2018-04-02T05:33:59.949Z,99.90
2018-04-02T05:36:27.397Z,99.90
2018-04-02T05:38:54.898Z,99.90
2018-04-02T05:41:22.377Z,99.90
2018-04-02T05:43:49.847Z,99.90
2018-04-02T05:46:17.324Z,99.90
2018-04-02T05:48:44.803Z,99.90
2018-04-02T05:51:13.057Z,99.90
2018-04-02T05:53:40.543Z,99.90
2018-04-02T05:56:08.785Z,99.90
2018-04-02T05:58:36.277Z,99.90
2018-04-02T06:01:04.560Z,99.90
2018-04-02T06:03:32.769Z,99.90
2018-04-02T06:06:00.267Z,99.90
2018-04-02T06:08:27.718Z,99.90
2018-04-02T06:10:55.214Z,99.90
2018-04-02T06:13:23.424Z,99.90
2018-04-02T06:15:50.894Z,99.90
2018-04-02T06:18:18.381Z,99.90
2018-04-02T06:20:45.857Z,99.90
2018-04-02T06:23:13.338Z,99.90
2018-04-02T06:25:40.847Z,99.90
2018-04-02T06:28:08.326Z,99.80
2018-04-02T06:30:35.874Z,99.60
2018-04-02T06:33:03.330Z,99.50
2018-04-02T06:35:30.801Z,99.40
2018-04-02T06:37:59.053Z,99.20
2018-04-02T06:40:26.623Z,99.10
2018-04-02T06:42:54.100Z,99.00
2018-04-02T06:45:22.327Z,98.70
2018-04-02T06:47:49.834Z,98.70
2018-04-02T06:50:18.076Z,98.30
2018-04-02T06:52:45.544Z,98.20
2018-04-02T06:55:13.805Z,97.90
2018-04-02T06:57:41.265Z,97.90
2018-04-02T07:00:08.750Z,97.70
2018-04-02T07:02:36.357Z,97.60
2018-04-02T07:05:04.554Z,97.50
2018-04-02T07:07:32.035Z,97.50
2018-04-02T07:09:59.510Z,98.90
2018-04-02T07:12:27.754Z,96.20
2018-04-02T07:14:55.240Z,96.20
2018-04-02T07:17:23.511Z,94.90
2018-04-02T07:19:51.759Z,94.30
2018-04-02T07:22:20.364Z,93.80
2018-04-02T07:24:48.970Z,93.30
2018-04-02T07:27:16.428Z,93.50
2018-04-02T07:29:44.679Z,93.10
2018-04-02T07:32:12.126Z,93.10
2018-04-02T07:34:39.692Z,92.50
2018-04-02T07:37:07.164Z,92.90
2018-04-02T07:39:35.421Z,92.70
2018-04-02T07:42:02.894Z,92.70
2018-04-02T07:44:31.148Z,92.40
2018-04-02T07:46:59.391Z,92.00
2018-04-02T07:49:26.866Z,92.10
2018-04-02T07:51:54.340Z,91.50
2018-04-02T07:54:21.786Z,91.50
2018-04-02T07:56:49.369Z,90.70
2018-04-02T07:59:17.617Z,90.00
2018-04-02T08:01:45.199Z,90.00
2018-04-02T08:04:12.660Z,90.20
2018-04-02T08:06:40.132Z,90.40
2018-04-02T08:09:08.345Z,90.20
2018-04-02T08:11:35.837Z,90.20
2018-04-02T08:14:03.316Z,89.60
2018-04-02T08:16:31.547Z,88.50
2018-04-02T08:19:00.157Z,87.90
2018-04-02T08:21:27.601Z,88.60
2018-04-02T08:23:55.080Z,88.50
2018-04-02T08:26:22.544Z,85.50
2018-04-02T08:28:50.058Z,85.00
2018-04-02T08:31:17.519Z,84.20
2018-04-02T08:33:45.029Z,83.90
2018-04-02T08:36:13.657Z,82.20
2018-04-02T08:38:41.195Z,82.90
2018-04-02T08:41:09.423Z,81.20
2018-04-02T08:43:36.874Z,81.10
2018-04-02T08:46:04.392Z,77.00
2018-04-02T08:48:31.882Z,77.80
2018-04-02T08:50:59.377Z,75.60
2018-04-02T08:53:27.603Z,73.20
2018-04-02T08:55:55.101Z,73.20
2018-04-02T08:58:22.557Z,71.60
2018-04-02T09:00:50.035Z,70.60
2018-04-02T09:03:17.504Z,68.30
2018-04-02T09:05:45.014Z,68.50
2018-04-02T09:08:12.599Z,70.30
2018-04-02T09:10:40.854Z,69.70
2018-04-02T09:13:08.355Z,69.70
2018-04-02T09:15:35.876Z,68.80
2018-04-02T09:18:03.367Z,72.20
2018-04-02T09:20:31.601Z,71.10
2018-04-02T09:22:59.103Z,71.20
2018-04-02T09:25:27.326Z,73.30
2018-04-02T09:27:54.860Z,73.30
2018-04-02T09:30:22.318Z,74.00
2018-04-02T09:32:49.786Z,73.90
2018-04-02T09:35:18.400Z,74.10
2018-04-02T09:37:45.866Z,74.80
2018-04-02T09:40:13.366Z,72.70
2018-04-02T09:42:40.839Z,73.20
2018-04-02T09:45:08.317Z,72.80
2018-04-02T09:47:35.850Z,70.70
2018-04-02T09:50:03.342Z,68.60
2018-04-02T09:52:30.815Z,69.90
2018-04-02T09:54:58.309Z,68.40
2018-04-02T09:57:25.792Z,68.10
2018-04-02T09:59:53.295Z,67.70
2018-04-02T10:02:21.532Z,68.50
2018-04-02T10:04:49.065Z,68.40
2018-04-02T10:07:17.331Z,68.00
2018-04-02T10:09:45.046Z,68.00
2018-04-02T10:12:12.569Z,66.90
2018-04-02T10:14:40.098Z,66.30
2018-04-02T10:17:08.365Z,63.90
2018-04-02T10:19:36.641Z,64.80
2018-04-02T10:22:04.211Z,64.60
2018-04-02T10:24:32.814Z,63.20
2018-04-02T10:27:02.853Z,63.20
2018-04-02T10:29:30.306Z,66.80
2018-04-02T10:31:58.591Z,65.80
2018-04-02T10:34:26.093Z,64.70
2018-04-02T10:36:54.354Z,62.00
2018-04-02T10:39:21.941Z,62.00
2018-04-02T10:41:50.174Z,57.50
2018-04-02T10:44:17.665Z,57.50
2018-04-02T10:46:45.939Z,59.30
2018-04-02T10:49:14.602Z,59.80
2018-04-02T10:51:42.082Z,60.50
2018-04-02T10:54:10.380Z,57.30
2018-04-02T10:56:38.621Z,55.30
2018-04-02T10:59:07.304Z,54.60
2018-04-02T11:01:34.772Z,55.20
2018-04-02T11:04:02.265Z,55.20
2018-04-02T11:06:29.740Z,56.80
2018-04-02T11:08:57.269Z,55.80
2018-04-02T11:11:24.758Z,57.50
2018-04-02T11:13:52.409Z,54.20
2018-04-02T11:16:19.895Z,54.50
2018-04-02T11:18:47.388Z,52.20
2018-04-02T11:21:15.659Z,50.70
2018-04-02T11:23:43.163Z,50.70
2018-04-02T11:26:10.637Z,52.50
2018-04-02T11:28:38.150Z,49.20
2018-04-02T11:31:05.650Z,50.10
2018-04-02T11:33:33.176Z,50.90
2018-04-02T11:36:01.447Z,50.10
2018-04-02T11:38:29.790Z,48.90
2018-04-02T11:40:57.304Z,48.80
2018-04-02T11:43:24.775Z,48.30
2018-04-02T11:45:52.298Z,46.10
2018-04-02T11:48:20.573Z,48.90
2018-04-02T11:50:48.062Z,48.80
2018-04-02T11:53:15.528Z,47.40
2018-04-02T11:55:43.040Z,48.70
2018-04-02T11:58:11.281Z,49.20
2018-04-02T12:00:38.782Z,48.80
2018-04-02T12:03:07.025Z,48.00
2018-04-02T12:05:34.497Z,48.00
2018-04-02T12:08:02.881Z,42.10
2018-04-02T12:10:30.371Z,42.70
2018-04-02T12:12:57.886Z,43.00
2018-04-02T12:15:25.378Z,44.60
2018-04-02T12:17:53.643Z,45.00
2018-04-02T12:20:22.621Z,44.60
2018-04-02T12:22:50.108Z,44.60
2018-04-02T12:25:17.619Z,41.80
2018-04-02T12:27:45.164Z,34.90
2018-04-02T12:30:12.631Z,28.50
2018-04-02T12:32:40.118Z,22.80
2018-04-02T12:35:08.375Z,20.50
2018-04-02T12:37:35.873Z,20.10
2018-04-02T12:40:03.338Z,19.60
2018-04-02T12:42:30.836Z,17.80
2018-04-02T12:44:58.307Z,17.50
2018-04-02T12:47:25.774Z,17.30
2018-04-02T12:49:54.764Z,15.80
2018-04-02T12:52:22.233Z,15.80
2018-04-02T12:54:49.713Z,17.50
2018-04-02T12:57:18.367Z,16.50
2018-04-02T12:59:45.844Z,16.90
2018-04-02T13:02:13.320Z,15.60
2018-04-02T13:04:41.681Z,15.10
2018-04-02T13:07:09.080Z,15.10
2018-04-02T13:09:36.592Z,16.00
2018-04-02T13:12:04.828Z,15.70
2018-04-02T13:14:32.283Z,15.60
2018-04-02T13:17:00.908Z,16.80
2018-04-02T13:19:29.201Z,19.60
2018-04-02T13:21:56.681Z,19.60
2018-04-02T13:24:24.148Z,19.20
2018-04-02T13:26:51.656Z,15.80
2018-04-02T13:29:19.881Z,14.70
2018-04-02T13:31:47.374Z,14.70
2018-04-02T13:34:14.835Z,15.00
2018-04-02T13:36:42.348Z,14.30
2018-04-02T13:39:09.817Z,13.20
2018-04-02T13:41:37.290Z,15.40
2018-04-02T13:44:04.788Z,14.20
2018-04-02T13:46:33.061Z,15.30
2018-04-02T13:49:01.313Z,15.80
2018-04-02T13:51:28.863Z,15.20
2018-04-02T13:53:56.281Z,16.20
2018-04-02T13:56:23.754Z,16.80
2018-04-02T13:58:51.246Z,17.90
2018-04-02T14:01:18.699Z,16.70
2018-04-02T14:03:46.179Z,17.00
2018-04-02T14:06:14.403Z,15.40
2018-04-02T14:08:41.906Z,15.30
2018-04-02T14:11:09.369Z,13.90
2018-04-02T14:13:36.825Z,12.40
2018-04-02T14:16:05.085Z,13.80
2018-04-02T14:18:32.534Z,13.70
2018-04-02T14:21:00.027Z,13.10
2018-04-02T14:23:28.254Z,14.00
2018-04-02T14:25:55.774Z,14.00
2018-04-02T14:28:23.233Z,14.60
2018-04-02T14:30:50.756Z,14.80
2018-04-02T14:33:18.219Z,14.50
2018-04-02T14:35:45.706Z,13.50
2018-04-02T14:38:13.155Z,12.90
2018-04-02T14:40:41.414Z,13.50
2018-04-02T14:43:09.640Z,11.90
2018-04-02T14:45:37.131Z,11.80
2018-04-02T14:48:04.577Z,11.30
2018-04-02T14:50:32.031Z,12.10
2018-04-02T14:52:59.652Z,11.90
2018-04-02T14:55:27.126Z,11.70
2018-04-02T14:57:54.625Z,11.20
2018-04-02T15:00:22.114Z,14.70
2018-04-02T15:02:49.611Z,13.70
2018-04-02T15:05:17.090Z,13.90
2018-04-02T15:07:44.591Z,13.70
2018-04-02T15:10:12.830Z,13.70
2018-04-02T15:12:40.326Z,13.70
2018-04-02T15:15:08.599Z,15.10
2018-04-02T15:17:36.865Z,15.50
2018-04-02T15:20:05.077Z,16.00
2018-04-02T15:22:32.583Z,16.00
2018-04-02T15:25:00.097Z,15.20
2018-04-02T15:27:27.552Z,15.70
2018-04-02T15:29:55.032Z,15.90
2018-04-02T15:32:23.391Z,16.00
2018-04-02T15:34:50.910Z,17.90
2018-04-02T15:37:19.152Z,17.70
2018-04-02T15:39:46.636Z,17.60
2018-04-02T15:42:14.952Z,19.10
2018-04-02T15:44:42.450Z,19.10
2018-04-02T15:47:09.914Z,17.70
2018-04-02T15:49:37.424Z,19.40
2018-04-02T15:52:04.902Z,20.30
2018-04-02T15:54:32.362Z,22.40
2018-04-02T15:56:59.847Z,21.60
2018-04-02T15:59:27.298Z,22.30
2018-04-02T16:01:58.449Z,22.60
2018-04-02T16:04:26.099Z,22.30
2018-04-02T16:06:53.591Z,23.80
2018-04-02T16:09:21.809Z,24.70
2018-04-02T16:11:49.320Z,24.70
2018-04-02T16:14:17.571Z,25.40
2018-04-02T16:16:45.037Z,25.40
2018-04-02T16:19:12.574Z,27.30
2018-04-02T16:21:40.076Z,25.30
2018-04-02T16:24:07.546Z,26.80
2018-04-02T16:26:35.781Z,25.20
2018-04-02T16:29:03.287Z,25.10
2018-04-02T16:31:30.803Z,26.90
2018-04-02T16:33:59.442Z,25.90
2018-04-02T16:36:26.923Z,26.40
2018-04-02T16:38:54.420Z,26.60
2018-04-02T16:41:22.693Z,28.90
2018-04-02T16:43:50.169Z,29.00
2018-04-02T16:46:18.448Z,33.10
2018-04-02T16:48:45.919Z,33.10
2018-04-02T16:51:13.404Z,33.10
2018-04-02T16:53:40.872Z,31.90
2018-04-02T16:56:08.369Z,31.30
2018-04-02T16:58:36.606Z,30.30
2018-04-02T17:01:04.111Z,30.20
2018-04-02T17:03:32.330Z,30.90
2018-04-02T17:05:59.826Z,30.90
2018-04-02T17:08:27.323Z,31.10
2018-04-02T17:10:54.832Z,31.00
2018-04-02T17:13:22.310Z,32.10
2018-04-02T17:15:50.580Z,30.70
2018-04-02T17:18:18.864Z,30.80
2018-04-02T17:20:47.155Z,33.20
2018-04-02T17:23:14.654Z,33.20
2018-04-02T17:25:42.175Z,32.70
2018-04-02T17:28:09.687Z,30.50
2018-04-02T17:30:37.251Z,31.10
2018-04-02T17:33:06.266Z,31.40
2018-04-02T17:35:34.550Z,31.50
2018-04-02T17:38:02.125Z,31.50
2018-04-02T17:40:29.595Z,31.00
2018-04-02T17:42:57.085Z,31.00
2018-04-02T17:45:24.597Z,30.30
2018-04-02T17:47:52.113Z,31.30
2018-04-02T17:50:19.603Z,30.70
2018-04-02T17:52:47.118Z,31.00
2018-04-02T17:55:14.644Z,30.30
2018-04-02T17:57:42.131Z,32.20
2018-04-02T18:00:09.688Z,31.10
2018-04-02T18:02:37.209Z,32.40
2018-04-02T18:05:04.737Z,31.80
2018-04-02T18:07:33.377Z,34.20
2018-04-02T18:10:00.889Z,34.70
2018-04-02T18:12:29.185Z,33.40
2018-04-02T18:14:56.702Z,33.40
2018-04-02T18:17:24.289Z,34.70
2018-04-02T18:19:52.682Z,36.60
2018-04-02T18:22:20.191Z,36.60
2018-04-02T18:24:47.817Z,38.30
2018-04-02T18:27:15.323Z,38.80
2018-04-02T18:29:42.841Z,38.80
2018-04-02T18:32:10.365Z,40.40
2018-04-02T18:34:38.636Z,40.50
2018-04-02T18:37:06.142Z,40.40
2018-04-02T18:39:33.622Z,42.50
2018-04-02T18:42:01.385Z,41.40
2018-04-02T18:44:29.017Z,41.50
2018-04-02T18:46:56.521Z,42.10
2018-04-02T18:49:24.026Z,41.80
2018-04-02T18:51:51.629Z,41.10
2018-04-02T18:54:19.135Z,40.40
2018-04-02T18:56:46.612Z,42.10
2018-04-02T18:59:14.163Z,41.20
2018-04-02T19:01:41.642Z,42.40
2018-04-02T19:04:09.173Z,43.10
2018-04-02T19:06:36.686Z,45.10
2018-04-02T19:09:04.265Z,45.40
2018-04-02T19:11:32.594Z,44.10
2018-04-02T19:14:00.119Z,44.10
2018-04-02T19:16:27.675Z,43.80
2018-04-02T19:18:55.151Z,43.40
2018-04-02T19:21:24.251Z,45.10
2018-04-02T19:23:51.729Z,45.70
2018-04-02T19:26:19.270Z,46.30
2018-04-02T19:28:46.756Z,46.10
2018-04-02T19:31:14.284Z,47.10
2018-04-02T19:33:41.760Z,47.90
2018-04-02T19:36:09.250Z,47.80
2018-04-02T19:38:36.859Z,49.00
2018-04-02T19:41:04.414Z,52.30
2018-04-02T19:43:31.887Z,51.20
2018-04-02T19:45:59.365Z,49.30
2018-04-02T19:48:26.865Z,47.70
2018-04-02T19:50:55.097Z,47.60
2018-04-02T19:53:22.670Z,47.50
2018-04-02T19:55:50.159Z,47.40
2018-04-02T19:58:18.807Z,47.00
2018-04-02T20:00:46.327Z,47.60
2018-04-02T20:03:13.827Z,46.10
2018-04-02T20:05:41.407Z,47.40
2018-04-02T20:08:10.042Z,43.60
2018-04-02T20:10:37.520Z,44.20
2018-04-02T20:13:05.050Z,44.40
2018-04-02T20:15:32.539Z,45.40
2018-04-02T20:18:00.074Z,48.20
2018-04-02T20:20:27.545Z,48.50
2018-04-02T20:22:55.062Z,48.70
2018-04-02T20:25:22.582Z,47.10
2018-04-02T20:27:50.087Z,46.60
2018-04-02T20:30:18.079Z,47.10
2018-04-02T20:32:45.759Z,45.40
2018-04-02T20:35:13.287Z,44.40
2018-04-02T20:37:40.828Z,43.20
2018-04-02T20:40:09.086Z,51.20
2018-04-02T20:42:37.425Z,52.00
2018-04-02T20:45:04.905Z,52.00
2018-04-02T20:47:32.436Z,50.40
2018-04-02T20:49:59.894Z,50.30
2018-04-02T20:52:27.402Z,50.10
2018-04-02T20:54:55.670Z,47.70
2018-04-02T20:57:23.172Z,47.70
2018-04-02T20:59:50.688Z,48.50
2018-04-02T21:02:18.962Z,48.10
2018-04-02T21:04:46.453Z,48.00
2018-04-02T21:07:13.962Z,49.00
2018-04-02T21:09:41.422Z,49.70
2018-04-02T21:12:08.967Z,50.20
2018-04-02T21:14:36.428Z,50.90
2018-04-02T21:17:03.937Z,50.50
2018-04-02T21:19:31.443Z,50.20
2018-04-02T21:21:58.904Z,53.30
2018-04-02T21:24:26.377Z,53.70
2018-04-02T21:26:53.859Z,52.80
2018-04-02T21:29:22.115Z,54.30
2018-04-02T21:31:49.592Z,54.30
2018-04-02T21:34:17.841Z,53.70
2018-04-02T21:36:46.810Z,53.20
2018-04-02T21:39:14.325Z,53.20
2018-04-02T21:41:42.626Z,58.20
2018-04-02T21:44:10.141Z,58.20
2018-04-02T21:46:37.604Z,60.50
2018-04-02T21:49:05.863Z,55.10
2018-04-02T21:51:33.344Z,55.10
2018-04-02T21:54:01.588Z,54.00
2018-04-02T21:56:29.138Z,54.00
2018-04-02T21:58:56.623Z,53.10
2018-04-02T22:01:24.905Z,56.30
2018-04-02T22:03:52.412Z,56.00
2018-04-02T22:09:24.503Z,59.40
2018-04-02T22:11:51.987Z,56.10
2018-04-02T22:14:19.446Z,55.10
2018-04-02T22:16:46.898Z,53.80
2018-04-02T22:19:14.377Z,53.50
2018-04-02T22:21:42.661Z,52.90
2018-04-02T22:24:10.898Z,53.50
2018-04-02T22:26:38.368Z,53.50
2018-04-02T22:29:05.846Z,54.00
2018-04-02T22:31:34.095Z,53.00
2018-04-02T22:34:01.598Z,53.00
2018-04-02T22:36:29.843Z,60.80
2018-04-02T22:38:57.343Z,60.70
2018-04-02T22:41:24.818Z,58.40
2018-04-02T22:43:52.299Z,56.70
2018-04-02T22:46:19.805Z,56.70
2018-04-02T22:48:47.309Z,55.00
2018-04-02T22:51:14.817Z,53.60
2018-04-02T22:53:43.091Z,52.00
2018-04-02T22:56:11.309Z,51.80
2018-04-02T22:58:38.785Z,51.70
2018-04-02T23:01:06.354Z,52.70
2018-04-02T23:03:33.842Z,53.40
2018-04-02T23:06:02.131Z,57.10
2018-04-02T23:08:29.617Z,57.10
2018-04-02T23:10:57.100Z,58.40
2018-04-02T23:13:24.606Z,59.80
2018-04-02T23:15:52.084Z,60.30
2018-04-02T23:18:19.594Z,61.60
2018-04-02T23:20:47.038Z,60.90
2018-04-02T23:23:14.526Z,59.40
2018-04-02T23:25:42.758Z,60.50
2018-04-02T23:28:10.295Z,60.50
2018-04-02T23:30:37.770Z,60.20
2018-04-02T23:33:05.272Z,61.30
2018-04-02T23:35:33.499Z,59.70
2018-04-02T23:38:02.284Z,59.70
2018-04-02T23:40:29.742Z,60.10
2018-04-02T23:42:57.190Z,61.10
2018-04-02T23:45:24.679Z,63.90
2018-04-02T23:47:52.183Z,64.50
2018-04-02T23:50:19.667Z,64.30
2018-04-02T23:52:47.125Z,63.90
2018-04-02T23:55:14.653Z,64.60
2018-04-02T23:57:42.875Z,62.50
